Time;durP1;ratioP1;P1;durP2;ratioP2;P2;SDS_P1;SDS_P2;PMS_P1;PMS_P2;Temp;Humidity;BMP_temperature;BMP_pressure;BME280_temperature;BME280_humidity;BME280_pressure;Samples;Min_cycle;Max_cycle;Signal;HPM_P1;HPM_P2
2021/11/06 00:02:13;;;;;;;10.32;8.30;;;8.00;1.00;;;;;;4979332;28;20313;-84
2021/11/06 00:04:40;;;;;;;8.95;6.65;;;8.00;1.00;;;;;;4969956;28;20235;-84
2021/11/06 00:07:07;;;;;;;8.65;6.60;;;7.90;1.00;;;;;;4961952;28;20303;-84
2021/11/06 00:09:33;;;;;;;9.57;7.43;;;8.00;1.00;;;;;;4983132;28;20534;-83
2021/11/06 00:12:01;;;;;;;12.18;7.90;;;8.00;1.00;;;;;;4974232;28;20225;-86
2021/11/06 00:14:28;;;;;;;10.10;7.13;;;7.90;1.00;;;;;;4972024;28;20308;-84
2021/11/06 00:16:55;;;;;;;9.15;6.80;;;7.90;1.00;;;;;;4972778;28;20216;-84
2021/11/06 00:19:23;;;;;;;9.85;6.88;;;8.00;1.00;;;;;;4974134;28;20328;-86
2021/11/06 00:21:49;;;;;;;12.30;7.65;;;8.00;1.00;;;;;;4981227;28;20226;-84
2021/11/06 00:24:17;;;;;;;9.63;7.28;;;7.90;1.00;;;;;;4982300;28;20228;-83
2021/11/06 00:26:43;;;;;;;10.00;7.22;;;7.90;1.00;;;;;;4985944;28;20318;-83
2021/11/06 00:29:12;;;;;;;9.38;6.95;;;7.90;1.00;;;;;;4973964;28;20225;-85
2021/11/06 00:31:38;;;;;;;10.15;8.00;;;7.90;1.00;;;;;;4968652;28;20296;-83
2021/11/06 00:34:06;;;;;;;9.35;7.85;;;8.00;1.00;;;;;;4964859;28;20315;-84
2021/11/06 00:36:32;;;;;;;11.68;8.25;;;8.00;1.00;;;;;;4964229;28;20229;-85
2021/11/06 00:38:59;;;;;;;11.02;7.90;;;8.10;1.00;;;;;;4966013;28;20256;-85
2021/11/06 00:41:26;;;;;;;11.00;7.90;;;8.10;1.00;;;;;;4946419;28;20362;-84
2021/11/06 00:43:53;;;;;;;10.90;8.30;;;8.20;1.00;;;;;;4953985;28;21117;-84
2021/11/06 00:46:21;;;;;;;12.20;7.00;;;8.30;1.00;;;;;;4961029;28;20472;-85
2021/11/06 00:48:48;;;;;;;9.87;7.47;;;8.30;1.00;;;;;;4969394;28;20228;-85
2021/11/06 00:51:15;;;;;;;13.90;8.48;;;8.40;1.00;;;;;;4951614;28;20959;-84
2021/11/06 00:53:46;;;;;;;10.93;6.53;;;8.50;1.00;;;;;;4968340;28;20976;-83
2021/11/06 00:56:13;;;;;;;9.18;7.60;;;8.50;1.00;;;;;;4970279;28;20224;-83
2021/11/06 00:58:40;;;;;;;10.13;7.05;;;8.50;1.00;;;;;;4969405;28;20233;-83
2021/11/06 01:01:08;;;;;;;8.27;6.68;;;8.50;1.00;;;;;;4990278;28;20251;-84
2021/11/06 01:03:37;;;;;;;10.10;7.20;;;8.50;1.00;;;;;;4991178;28;20214;-83
2021/11/06 01:06:03;;;;;;;9.93;6.43;;;8.50;1.00;;;;;;4986303;28;20252;-83
2021/11/06 01:08:30;;;;;;;8.40;6.15;;;8.60;1.00;;;;;;4982583;28;20794;-83
2021/11/06 01:10:59;;;;;;;10.43;7.38;;;8.60;1.00;;;;;;4970307;28;20787;-84
2021/11/06 01:13:26;;;;;;;12.43;6.50;;;8.60;1.00;;;;;;4985852;28;20282;-84
2021/11/06 01:15:53;;;;;;;12.18;6.70;;;8.70;1.00;;;;;;4989520;28;20449;-84
2021/11/06 01:18:19;;;;;;;10.00;7.95;;;8.70;1.00;;;;;;4990720;28;20248;-83
2021/11/06 01:20:48;;;;;;;13.48;7.32;;;8.70;1.00;;;;;;5002878;28;20237;-82
2021/11/06 01:23:15;;;;;;;9.63;6.43;;;8.80;1.00;;;;;;4986778;28;20225;-84
2021/11/06 01:25:42;;;;;;;10.80;7.32;;;8.80;1.00;;;;;;4989375;28;20233;-83
2021/11/06 01:28:09;;;;;;;15.07;7.07;;;8.90;1.00;;;;;;4989782;28;20284;-83
2021/11/06 01:30:36;;;;;;;9.52;7.13;;;8.80;1.00;;;;;;4966395;28;24291;-84
2021/11/06 01:33:03;;;;;;;10.32;6.40;;;8.90;1.00;;;;;;4957157;28;21395;-84
2021/11/06 01:35:30;;;;;;;11.77;6.70;;;8.90;1.00;;;;;;4963556;28;20926;-83
2021/11/06 01:37:59;;;;;;;9.90;6.75;;;8.90;1.00;;;;;;4950248;28;20799;-84
2021/11/06 01:40:27;;;;;;;10.85;7.32;;;8.90;1.00;;;;;;4979430;28;20239;-85
2021/11/06 01:42:54;;;;;;;10.63;7.07;;;8.90;1.00;;;;;;4974230;28;20224;-84
2021/11/06 01:45:22;;;;;;;9.48;7.40;;;8.90;1.00;;;;;;4963488;28;20730;-84
2021/11/06 01:47:50;;;;;;;11.18;8.30;;;8.90;1.00;;;;;;4962948;28;20317;-84
2021/11/06 01:50:19;;;;;;;9.20;6.80;;;9.00;1.00;;;;;;4976668;28;20285;-84
2021/11/06 01:52:46;;;;;;;8.60;7.45;;;8.90;1.00;;;;;;4949258;28;21107;-84
2021/11/06 01:55:15;;;;;;;12.15;7.25;;;9.00;1.00;;;;;;4970480;28;20245;-84
2021/11/06 01:57:44;;;;;;;10.52;7.25;;;9.00;1.00;;;;;;4961785;28;20228;-84
2021/11/06 02:00:17;;;;;;;10.45;7.00;;;9.00;1.00;;;;;;4970668;28;21016;-84
2021/11/06 02:02:44;;;;;;;8.30;6.73;;;9.00;1.00;;;;;;4979596;28;20228;-84
2021/11/06 02:05:11;;;;;;;10.50;7.20;;;9.00;1.00;;;;;;4956069;28;21493;-84
2021/11/06 02:07:38;;;;;;;9.35;6.85;;;9.10;1.00;;;;;;4948332;28;20762;-84
2021/11/06 02:10:07;;;;;;;11.23;7.80;;;9.00;1.00;;;;;;4972891;28;25447;-85
2021/11/06 02:12:35;;;;;;;9.60;7.38;;;9.10;1.00;;;;;;4973420;28;20503;-85
2021/11/06 02:15:02;;;;;;;10.30;7.60;;;9.10;1.00;;;;;;4973622;28;20235;-85
2021/11/06 02:17:28;;;;;;;10.85;7.03;;;9.00;1.00;;;;;;4962167;28;20204;-84
2021/11/06 02:19:55;;;;;;;8.70;7.45;;;9.00;1.00;;;;;;4998936;28;20251;-84
2021/11/06 02:22:24;;;;;;;9.10;7.82;;;9.00;1.00;;;;;;4966174;28;20224;-84
2021/11/06 02:24:53;;;;;;;9.60;6.28;;;9.00;1.00;;;;;;4983549;28;20250;-83
2021/11/06 02:27:21;;;;;;;9.63;6.68;;;9.00;1.00;;;;;;4962899;28;20236;-83
2021/11/06 02:29:48;;;;;;;11.40;7.38;;;9.00;1.00;;;;;;4964796;28;20231;-84
2021/11/06 02:32:15;;;;;;;11.10;7.70;;;9.10;1.00;;;;;;4969319;28;20226;-84
2021/11/06 02:34:42;;;;;;;10.95;7.53;;;9.10;1.00;;;;;;4965853;28;20237;-84
2021/11/06 02:37:09;;;;;;;8.60;6.85;;;9.10;1.00;;;;;;4973303;28;20224;-84
2021/11/06 02:39:37;;;;;;;9.90;6.97;;;9.10;1.00;;;;;;4962326;28;20309;-85
2021/11/06 02:42:07;;;;;;;10.95;6.55;;;9.10;1.00;;;;;;4968982;28;20313;-84
2021/11/06 02:44:34;;;;;;;11.00;7.30;;;9.10;1.00;;;;;;4969177;28;20228;-84
2021/11/06 02:47:01;;;;;;;8.90;6.70;;;9.10;1.00;;;;;;4967791;28;20223;-84
2021/11/06 02:49:31;;;;;;;12.37;7.23;;;9.20;1.00;;;;;;4956146;28;20278;-85
2021/11/06 02:51:58;;;;;;;13.27;7.03;;;9.10;1.00;;;;;;4969606;28;20535;-84
2021/11/06 02:54:24;;;;;;;11.30;7.57;;;9.20;1.00;;;;;;4974563;28;20473;-84
2021/11/06 02:56:52;;;;;;;9.30;6.30;;;9.20;1.00;;;;;;4977027;28;20437;-85
2021/11/06 02:59:19;;;;;;;8.77;6.93;;;9.20;1.00;;;;;;4973262;28;20472;-84
2021/11/06 03:01:46;;;;;;;9.57;7.03;;;9.10;1.00;;;;;;4974752;28;20456;-84
2021/11/06 03:04:14;;;;;;;12.48;7.82;;;9.20;1.00;;;;;;4969471;28;20452;-83
2021/11/06 03:06:41;;;;;;;9.50;6.60;;;9.10;1.00;;;;;;4969986;28;20228;-84
2021/11/06 03:09:09;;;;;;;13.80;7.73;;;9.10;1.00;;;;;;4968365;28;21208;-83
2021/11/06 03:11:38;;;;;;;11.17;7.00;;;9.10;1.00;;;;;;4973430;28;21645;-82
2021/11/06 03:14:09;;;;;;;11.55;7.85;;;9.10;1.00;;;;;;4981998;28;20471;-83
2021/11/06 03:16:37;;;;;;;13.55;7.97;;;9.10;1.00;;;;;;4991752;28;20227;-84
2021/11/06 03:19:04;;;;;;;11.82;7.00;;;9.10;1.00;;;;;;5006293;28;20297;-82
2021/11/06 03:21:30;;;;;;;11.60;7.77;;;9.00;1.00;;;;;;5005140;28;20233;-83
2021/11/06 03:23:57;;;;;;;10.88;7.45;;;9.00;1.00;;;;;;4975472;28;20502;-83
2021/11/06 03:26:24;;;;;;;12.30;7.25;;;9.10;1.00;;;;;;4974269;28;20317;-85
2021/11/06 03:28:51;;;;;;;14.20;7.50;;;9.00;1.00;;;;;;4970179;28;20253;-83
2021/11/06 03:31:19;;;;;;;14.07;8.33;;;9.00;1.00;;;;;;4973167;28;20235;-83
2021/11/06 03:33:46;;;;;;;10.60;7.22;;;9.00;1.00;;;;;;4975568;28;20463;-84
2021/11/06 03:36:12;;;;;;;11.75;7.70;;;9.00;1.00;;;;;;4972349;28;20236;-84
2021/11/06 03:38:39;;;;;;;10.70;8.13;;;9.00;1.00;;;;;;4968287;28;20229;-83
2021/11/06 03:41:06;;;;;;;12.05;8.18;;;9.10;1.00;;;;;;4973556;28;20470;-84
2021/11/06 03:43:33;;;;;;;12.60;7.55;;;9.10;1.00;;;;;;4964536;28;20239;-84
2021/11/06 03:46:00;;;;;;;13.18;7.13;;;9.10;1.00;;;;;;4974985;28;20256;-84
2021/11/06 03:48:28;;;;;;;9.67;6.80;;;9.10;1.00;;;;;;4979393;28;21230;-84
2021/11/06 03:50:55;;;;;;;11.50;7.67;;;9.10;1.00;;;;;;4977386;28;20467;-84
2021/11/06 03:53:22;;;;;;;13.50;7.60;;;9.10;1.00;;;;;;4957268;28;20466;-85
2021/11/06 03:55:49;;;;;;;8.98;6.55;;;9.10;1.00;;;;;;4972132;28;20222;-84
2021/11/06 03:58:16;;;;;;;11.43;6.60;;;9.10;1.00;;;;;;4987568;28;20222;-85
2021/11/06 04:00:43;;;;;;;9.53;7.07;;;9.10;1.00;;;;;;4967177;28;20274;-85
2021/11/06 04:03:09;;;;;;;10.80;7.65;;;9.20;1.00;;;;;;4954858;28;20436;-85
2021/11/06 04:05:37;;;;;;;11.45;6.80;;;9.20;1.00;;;;;;4976080;28;20235;-85
2021/11/06 04:08:05;;;;;;;10.33;6.90;;;9.20;1.00;;;;;;4954141;28;20236;-85
2021/11/06 04:10:32;;;;;;;9.77;7.30;;;9.20;1.00;;;;;;4973806;28;20539;-84
2021/11/06 04:12:58;;;;;;;13.57;6.32;;;9.20;1.00;;;;;;4956496;28;20488;-84
2021/11/06 04:15:25;;;;;;;11.63;6.68;;;9.20;1.00;;;;;;4981364;28;20222;-85
2021/11/06 04:17:52;;;;;;;8.70;6.20;;;9.20;1.00;;;;;;4996256;28;20297;-85
2021/11/06 04:20:18;;;;;;;11.40;5.95;;;9.20;1.00;;;;;;4970457;28;20644;-85
2021/11/06 04:22:50;;;;;;;8.82;6.82;;;9.20;1.00;;;;;;4975002;28;20229;-83
2021/11/06 04:25:17;;;;;;;9.60;6.18;;;9.20;1.00;;;;;;4968997;28;20340;-83
2021/11/06 04:27:43;;;;;;;10.63;6.90;;;9.30;1.00;;;;;;4967736;28;20222;-83
2021/11/06 04:30:11;;;;;;;9.80;6.10;;;9.30;1.00;;;;;;4974889;28;20532;-84
2021/11/06 04:32:38;;;;;;;11.57;5.95;;;9.20;1.00;;;;;;4973626;28;20227;-83
2021/11/06 04:35:05;;;;;;;8.70;5.53;;;9.20;1.00;;;;;;4967711;28;20316;-84
2021/11/06 04:37:31;;;;;;;11.32;6.45;;;9.20;1.00;;;;;;4965836;28;20763;-83
2021/11/06 04:39:59;;;;;;;7.90;5.72;;;9.20;1.00;;;;;;4969775;28;20229;-82
2021/11/06 04:42:26;;;;;;;10.00;6.57;;;9.20;1.00;;;;;;4957825;28;20365;-83
2021/11/06 04:44:53;;;;;;;8.57;5.28;;;9.20;1.00;;;;;;4971933;28;20218;-83
2021/11/06 04:47:20;;;;;;;14.38;5.75;;;9.20;1.00;;;;;;4969860;28;20235;-83
2021/11/06 04:49:46;;;;;;;9.45;5.90;;;9.20;1.00;;;;;;4975080;28;20234;-84
2021/11/06 04:52:13;;;;;;;7.10;5.32;;;9.20;1.00;;;;;;4956170;28;20416;-82
2021/11/06 04:54:40;;;;;;;9.23;5.60;;;9.20;1.00;;;;;;4980466;28;20233;-82
2021/11/06 04:57:08;;;;;;;8.77;4.82;;;9.20;1.00;;;;;;4981174;28;20225;-83
2021/11/06 04:59:35;;;;;;;7.18;4.75;;;9.20;1.00;;;;;;4981984;28;20234;-84
2021/11/06 05:02:03;;;;;;;7.07;4.63;;;9.20;1.00;;;;;;4975673;28;20218;-84
2021/11/06 05:04:29;;;;;;;12.50;9.05;;;9.20;1.00;;;;;;4976437;28;20274;-84
2021/11/06 05:06:56;;;;;;;13.80;5.10;;;9.20;1.00;;;;;;4977549;28;20227;-86
2021/11/06 05:09:23;;;;;;;8.03;5.53;;;9.20;1.00;;;;;;4977319;28;20469;-84
2021/11/06 05:11:50;;;;;;;8.98;4.93;;;9.20;1.00;;;;;;4982672;28;20462;-85
2021/11/06 05:14:19;;;;;;;10.20;4.50;;;9.20;1.00;;;;;;5004378;28;20216;-84
2021/11/06 05:16:45;;;;;;;6.03;3.83;;;9.20;1.00;;;;;;4987465;28;21168;-85
2021/11/06 05:19:13;;;;;;;8.25;4.70;;;9.20;1.00;;;;;;4961731;28;21498;-84
2021/11/06 05:21:41;;;;;;;9.55;4.93;;;9.20;1.00;;;;;;4969757;28;21525;-85
2021/11/06 05:24:09;;;;;;;6.35;3.92;;;9.10;1.00;;;;;;4971115;28;20253;-84
2021/11/06 05:26:36;;;;;;;6.45;3.75;;;9.10;1.00;;;;;;4972523;28;20890;-84
2021/11/06 05:29:06;;;;;;;7.45;3.40;;;9.10;1.00;;;;;;4976136;28;20799;-84
2021/11/06 05:31:35;;;;;;;6.65;3.20;;;9.10;1.00;;;;;;4980638;28;20916;-84
2021/11/06 05:34:02;;;;;;;7.10;3.80;;;9.10;1.00;;;;;;4975858;28;20239;-85
2021/11/06 05:36:30;;;;;;;5.07;3.35;;;9.20;1.00;;;;;;4982281;28;20733;-84
2021/11/06 05:38:57;;;;;;;6.20;4.40;;;9.20;1.00;;;;;;4978362;28;20701;-84
2021/11/06 05:41:23;;;;;;;8.20;4.25;;;9.20;1.00;;;;;;4979267;28;20489;-84
2021/11/06 05:43:50;;;;;;;6.75;3.47;;;9.20;1.00;;;;;;4983673;28;20242;-85
2021/11/06 05:46:17;;;;;;;5.90;3.40;;;9.30;1.00;;;;;;4987329;28;20265;-85
2021/11/06 05:48:45;;;;;;;6.43;4.10;;;9.30;1.00;;;;;;5002123;28;20239;-85
2021/11/06 05:51:12;;;;;;;10.10;4.80;;;9.30;1.00;;;;;;5007287;28;20461;-84
2021/11/06 05:53:39;;;;;;;5.82;3.60;;;9.30;1.00;;;;;;4970175;28;20455;-83
2021/11/06 05:56:06;;;;;;;6.40;3.90;;;9.30;1.00;;;;;;4966380;28;20232;-84
2021/11/06 05:58:33;;;;;;;6.23;3.60;;;9.30;1.00;;;;;;4985267;28;20464;-85
2021/11/06 06:01:00;;;;;;;9.25;4.25;;;9.30;1.00;;;;;;4974953;28;20483;-83
2021/11/06 06:03:28;;;;;;;6.63;3.58;;;9.30;1.00;;;;;;4973121;28;20241;-85
2021/11/06 06:05:56;;;;;;;10.00;3.50;;;9.30;1.00;;;;;;4970378;28;21181;-84
2021/11/06 06:08:22;;;;;;;6.60;3.37;;;9.30;1.00;;;;;;4974744;28;20483;-83
2021/11/06 06:10:49;;;;;;;5.85;3.50;;;9.30;1.00;;;;;;4974233;28;20457;-85
2021/11/06 06:13:16;;;;;;;6.05;3.45;;;9.30;1.00;;;;;;4971850;28;20339;-84
2021/11/06 06:15:43;;;;;;;6.13;4.67;;;9.40;1.00;;;;;;4964648;28;20235;-84
2021/11/06 06:18:10;;;;;;;6.75;3.85;;;9.40;1.00;;;;;;4980068;28;20492;-85
2021/11/06 06:20:36;;;;;;;5.77;3.80;;;9.30;1.00;;;;;;4980142;28;20243;-85
2021/11/06 06:23:04;;;;;;;10.18;4.50;;;9.30;1.00;;;;;;4965794;28;20454;-84
2021/11/06 06:25:31;;;;;;;8.57;4.73;;;9.30;1.00;;;;;;4973605;28;20223;-84
2021/11/06 06:27:58;;;;;;;7.00;4.00;;;9.30;1.00;;;;;;4971995;28;20446;-82
2021/11/06 06:30:24;;;;;;;8.90;4.13;;;9.30;1.00;;;;;;4965571;28;20467;-79
2021/11/06 06:32:51;;;;;;;5.80;4.30;;;9.30;1.00;;;;;;4956163;28;20258;-80
2021/11/06 06:35:18;;;;;;;7.67;4.50;;;9.30;1.00;;;;;;4966185;28;20450;-77
2021/11/06 06:37:44;;;;;;;7.93;3.90;;;9.30;1.00;;;;;;4964356;28;20459;-78
2021/11/06 06:40:13;;;;;;;9.02;4.82;;;9.30;1.00;;;;;;4971170;28;20470;-80
2021/11/06 06:42:40;;;;;;;5.20;3.88;;;9.30;1.00;;;;;;4951136;28;20312;-80
2021/11/06 06:45:07;;;;;;;9.47;5.20;;;9.30;1.00;;;;;;4967822;28;20278;-80
2021/11/06 06:47:34;;;;;;;6.15;4.63;;;9.30;1.00;;;;;;4974369;28;20462;-78
2021/11/06 06:50:01;;;;;;;8.48;5.03;;;9.30;1.00;;;;;;4995003;28;20229;-80
2021/11/06 06:52:28;;;;;;;7.90;4.93;;;9.30;1.00;;;;;;4979036;28;20227;-79
2021/11/06 06:54:54;;;;;;;7.80;4.53;;;9.30;1.00;;;;;;4970176;28;20239;-80
2021/11/06 06:57:22;;;;;;;9.50;6.90;;;9.40;1.00;;;;;;4961876;28;21165;-82
2021/11/06 06:59:49;;;;;;;9.45;5.80;;;9.40;1.00;;;;;;4976135;28;20466;-79
2021/11/06 07:02:16;;;;;;;10.00;4.65;;;9.40;1.00;;;;;;4973987;28;20235;-79
2021/11/06 07:04:43;;;;;;;6.80;4.80;;;9.50;1.00;;;;;;4978556;28;20240;-79
2021/11/06 07:07:10;;;;;;;6.68;4.13;;;9.50;1.00;;;;;;4962985;28;20455;-79
2021/11/06 07:09:37;;;;;;;7.18;5.15;;;9.60;1.00;;;;;;4978091;28;20675;-80
2021/11/06 07:12:04;;;;;;;7.10;4.63;;;9.60;1.00;;;;;;4968399;28;20234;-79
2021/11/06 07:14:32;;;;;;;10.23;4.93;;;9.70;1.00;;;;;;4961920;28;20478;-80
2021/11/06 07:16:59;;;;;;;9.33;5.50;;;9.80;1.00;;;;;;4966202;28;20442;-80
2021/11/06 07:19:26;;;;;;;9.37;4.80;;;9.80;1.00;;;;;;4972099;28;20463;-81
2021/11/06 07:21:53;;;;;;;7.87;5.50;;;9.80;1.00;;;;;;4965838;28;20455;-82
2021/11/06 07:24:20;;;;;;;6.57;4.37;;;9.90;1.00;;;;;;4963482;28;20455;-81
2021/11/06 07:26:46;;;;;;;6.57;4.63;;;10.00;1.00;;;;;;4966045;28;20451;-81
2021/11/06 07:29:14;;;;;;;10.40;5.17;;;10.10;1.00;;;;;;4969672;28;20885;-81
2021/11/06 07:31:42;;;;;;;7.30;5.53;;;10.10;1.00;;;;;;4959953;28;20450;-82
2021/11/06 07:34:09;;;;;;;6.27;4.53;;;10.20;1.00;;;;;;4963323;28;20464;-80
2021/11/06 07:36:36;;;;;;;8.43;5.33;;;10.30;1.00;;;;;;4956400;28;22918;-80
2021/11/06 07:39:03;;;;;;;6.60;4.57;;;10.30;1.00;;;;;;4960395;28;20460;-80
2021/11/06 07:41:29;;;;;;;7.10;4.60;;;10.40;1.00;;;;;;4959902;28;20946;-81
2021/11/06 07:43:56;;;;;;;8.23;5.43;;;10.40;1.00;;;;;;4963886;28;20556;-80
2021/11/06 07:46:23;;;;;;;6.43;4.63;;;10.40;1.00;;;;;;4983351;28;20447;-80
2021/11/06 07:48:52;;;;;;;8.10;5.27;;;10.30;1.00;;;;;;4985541;28;20495;-80
2021/11/06 07:51:18;;;;;;;7.13;4.30;;;10.20;1.00;;;;;;4968865;28;20474;-80
2021/11/06 07:53:46;;;;;;;7.43;4.47;;;10.30;1.00;;;;;;4965411;28;20467;-80
2021/11/06 07:56:13;;;;;;;9.23;5.33;;;10.20;1.00;;;;;;4956332;28;20439;-80
2021/11/06 07:58:40;;;;;;;7.50;4.80;;;10.20;1.00;;;;;;4958795;28;20472;-80
2021/11/06 08:01:06;;;;;;;8.70;4.53;;;10.20;1.00;;;;;;4958756;28;20466;-80
2021/11/06 08:03:33;;;;;;;5.80;3.97;;;10.10;1.00;;;;;;4960873;28;21485;-79
2021/11/06 08:06:01;;;;;;;5.90;4.60;;;10.10;1.00;;;;;;4972785;28;25273;-80
2021/11/06 08:08:28;;;;;;;7.80;4.67;;;10.10;1.00;;;;;;4975789;28;21624;-80
2021/11/06 08:10:55;;;;;;;8.30;5.53;;;10.20;1.00;;;;;;4969178;28;21298;-81
2021/11/06 08:13:22;;;;;;;8.47;5.07;;;10.20;1.00;;;;;;4960765;28;20492;-80
2021/11/06 08:15:48;;;;;;;7.10;5.17;;;10.20;1.00;;;;;;4963652;28;20465;-79
2021/11/06 08:18:15;;;;;;;8.10;5.00;;;10.20;1.00;;;;;;4963083;28;20467;-80
2021/11/06 08:20:43;;;;;;;7.50;5.17;;;10.20;1.00;;;;;;4956051;28;20570;-79
2021/11/06 08:23:11;;;;;;;7.20;5.33;;;10.20;1.00;;;;;;4962579;28;20682;-80
2021/11/06 08:25:38;;;;;;;8.07;5.73;;;10.30;1.00;;;;;;4960942;28;20527;-81
2021/11/06 08:28:05;;;;;;;7.00;4.70;;;10.20;1.00;;;;;;4968778;28;20457;-80
2021/11/06 08:30:32;;;;;;;7.20;5.40;;;10.30;1.00;;;;;;4970102;28;20466;-81
2021/11/06 08:33:01;;;;;;;8.40;5.10;;;10.40;1.00;;;;;;4984572;28;20474;-80
2021/11/06 08:35:29;;;;;;;7.20;5.10;;;10.40;1.00;;;;;;4984148;28;20438;-79
2021/11/06 08:37:56;;;;;;;5.43;4.57;;;10.50;1.00;;;;;;4987439;28;20459;-79
2021/11/06 08:40:25;;;;;;;9.03;6.70;;;10.70;1.00;;;;;;4984837;28;21412;-79
2021/11/06 08:42:52;;;;;;;10.47;6.00;;;11.00;1.00;;;;;;4973445;28;20460;-81
2021/11/06 08:45:18;;;;;;;9.47;7.13;;;11.10;1.00;;;;;;4988836;28;20407;-81
2021/11/06 08:47:45;;;;;;;7.63;5.73;;;11.20;1.00;;;;;;4981961;28;20470;-80
2021/11/06 08:50:16;;;;;;;7.70;5.50;;;11.20;1.00;;;;;;4971928;28;20423;-79
2021/11/06 08:52:43;;;;;;;7.90;5.50;;;11.20;1.00;;;;;;4966913;28;20448;-79
2021/11/06 08:55:11;;;;;;;8.30;6.13;;;11.30;1.00;;;;;;4961971;28;20463;-80
2021/11/06 08:57:40;;;;;;;6.57;5.87;;;11.30;1.00;;;;;;4962343;28;20480;-79
2021/11/06 09:00:10;;;;;;;7.57;5.50;;;11.20;1.00;;;;;;4948680;28;20470;-79
2021/11/06 09:02:38;;;;;;;9.43;5.13;;;11.20;1.00;;;;;;4961045;28;20509;-80
2021/11/06 09:05:08;;;;;;;7.80;5.33;;;11.20;1.00;;;;;;4960623;28;20486;-79
2021/11/06 09:07:36;;;;;;;7.60;5.57;;;11.30;1.00;;;;;;4961905;28;21018;-81
2021/11/06 09:10:05;;;;;;;10.77;5.57;;;11.20;1.00;;;;;;4963715;28;20461;-80
2021/11/06 09:12:32;;;;;;;7.23;5.77;;;11.30;1.00;;;;;;4964861;28;20482;-81
2021/11/06 09:15:02;;;;;;;7.47;5.27;;;11.40;1.00;;;;;;4972570;28;20419;-82
2021/11/06 09:17:29;;;;;;;6.50;5.50;;;11.40;1.00;;;;;;4961475;28;20525;-82
2021/11/06 09:19:56;;;;;;;9.20;6.07;;;11.50;1.00;;;;;;4968326;28;20432;-82
2021/11/06 09:22:24;;;;;;;6.33;5.43;;;11.40;1.00;;;;;;4945757;28;20485;-82
2021/11/06 09:24:54;;;;;;;8.63;5.80;;;11.40;1.00;;;;;;4961263;28;20714;-82
2021/11/06 09:27:21;;;;;;;7.53;6.60;;;11.30;1.00;;;;;;4966821;28;20467;-83
2021/11/06 09:29:49;;;;;;;7.17;5.63;;;11.20;1.00;;;;;;4966514;28;20455;-82
2021/11/06 09:32:18;;;;;;;8.90;6.10;;;11.30;1.00;;;;;;4967991;28;20461;-81
2021/11/06 09:34:45;;;;;;;6.90;5.43;;;11.50;1.00;;;;;;4965586;28;20478;-82
2021/11/06 09:37:11;;;;;;;9.47;6.00;;;11.70;1.00;;;;;;4949256;28;22376;-80
2021/11/06 09:39:38;;;;;;;8.80;5.77;;;11.80;1.00;;;;;;4964449;28;20459;-80
2021/11/06 09:42:06;;;;;;;8.47;6.30;;;11.90;1.00;;;;;;4975075;28;20893;-81
2021/11/06 09:44:34;;;;;;;7.73;6.80;;;11.90;1.00;;;;;;4965880;28;20455;-82
2021/11/06 09:47:07;;;;;;;7.13;5.90;;;11.90;1.00;;;;;;4966673;28;21258;-80
2021/11/06 09:49:35;;;;;;;8.43;5.80;;;12.10;1.00;;;;;;4967575;28;20933;-80
2021/11/06 09:52:02;;;;;;;11.20;6.83;;;12.20;1.00;;;;;;4955503;28;21212;-80
2021/11/06 09:54:31;;;;;;;6.60;6.00;;;12.10;1.00;;;;;;4953611;28;20458;-78
2021/11/06 09:56:58;;;;;;;6.17;5.13;;;12.20;1.00;;;;;;4957158;28;21561;-79
2021/11/06 09:59:25;;;;;;;13.20;6.20;;;12.40;1.00;;;;;;4957652;28;21053;-79
2021/11/06 10:01:52;;;;;;;6.47;5.40;;;12.80;1.00;;;;;;4957725;28;20483;-77
2021/11/06 10:04:19;;;;;;;6.77;6.03;;;12.90;1.00;;;;;;4953919;28;20460;-79
2021/11/06 10:06:47;;;;;;;7.03;5.30;;;13.10;1.00;;;;;;4956470;28;20450;-78
2021/11/06 10:09:16;;;;;;;9.17;5.67;;;13.20;1.00;;;;;;4955811;28;20474;-78
2021/11/06 10:11:46;;;;;;;7.87;5.03;;;13.00;1.00;;;;;;4967346;28;20443;-83
2021/11/06 10:14:16;;;;;;;6.70;5.00;;;13.10;1.00;;;;;;4961320;28;20467;-82
2021/11/06 10:16:50;;;;;;;7.80;5.50;;;13.20;1.00;;;;;;4971867;28;20471;-81
2021/11/06 10:19:19;;;;;;;5.93;4.40;;;13.40;1.00;;;;;;4974671;28;21234;-80
2021/11/06 10:21:50;;;;;;;8.33;6.23;;;13.40;1.00;;;;;;4963583;28;20455;-82
2021/11/06 10:24:36;;;;;;;6.87;5.53;;;13.40;1.00;;;;;;4970835;28;20595;-79
2021/11/06 10:27:17;;;;;;;7.27;4.83;;;13.40;1.00;;;;;;4947604;28;20428;-82
2021/11/06 10:29:45;;;;;;;7.30;5.33;;;13.20;1.00;;;;;;4967524;28;21271;-80
2021/11/06 10:32:12;;;;;;;6.63;4.80;;;13.20;1.00;;;;;;4966867;28;20471;-81
2021/11/06 10:34:40;;;;;;;5.43;4.80;;;13.10;1.00;;;;;;4986507;28;20568;-81
2021/11/06 10:37:12;;;;;;;6.10;4.50;;;13.10;1.00;;;;;;4994470;28;20447;-81
2021/11/06 10:39:54;;;;;;;5.63;4.60;;;13.20;1.00;;;;;;4996368;28;20490;-81
2021/11/06 10:42:21;;;;;;;5.83;5.10;;;13.10;1.00;;;;;;4988744;28;20458;-81
2021/11/06 10:44:47;;;;;;;4.83;4.10;;;13.30;1.00;;;;;;4987313;28;20451;-81
2021/11/06 10:47:16;;;;;;;6.20;4.37;;;13.20;1.00;;;;;;4983207;28;20474;-82
2021/11/06 10:49:47;;;;;;;8.60;4.73;;;13.30;1.00;;;;;;4983976;28;20430;-82
2021/11/06 10:52:19;;;;;;;5.53;4.20;;;13.40;1.00;;;;;;4986264;28;20452;-82
2021/11/06 10:55:05;;;;;;;5.17;4.40;;;13.50;1.00;;;;;;4986129;28;20467;-82
2021/11/06 10:57:33;;;;;;;7.80;4.70;;;13.60;1.00;;;;;;4985375;28;21081;-81
2021/11/06 11:00:11;;;;;;;5.57;4.13;;;13.70;1.00;;;;;;4984069;28;20818;-81
2021/11/06 11:02:38;;;;;;;6.43;5.07;;;13.50;1.00;;;;;;4978136;28;20427;-81
2021/11/06 11:05:06;;;;;;;5.60;4.30;;;13.30;1.00;;;;;;4982299;28;20418;-81
2021/11/06 11:07:34;;;;;;;4.60;4.20;;;13.30;1.00;;;;;;4977494;28;20429;-81
2021/11/06 11:10:22;;;;;;;4.13;3.60;;;13.50;1.00;;;;;;4982491;28;20412;-81
2021/11/06 11:13:10;;;;;;;6.20;4.40;;;13.60;1.00;;;;;;4984228;28;20475;-81
2021/11/06 11:15:37;;;;;;;5.23;4.20;;;13.60;1.00;;;;;;4985069;28;21128;-81
2021/11/06 11:18:03;;;;;;;11.23;4.70;;;13.70;1.00;;;;;;4985879;28;20455;-81
2021/11/06 11:20:36;;;;;;;8.10;5.03;;;13.80;1.00;;;;;;4985816;28;20447;-80
2021/11/06 11:23:11;;;;;;;5.60;4.70;;;13.70;1.00;;;;;;4981817;28;20451;-81
2021/11/06 11:25:38;;;;;;;5.80;4.80;;;13.60;1.00;;;;;;4987158;28;20489;-82
2021/11/06 11:28:05;;;;;;;5.20;3.60;;;13.30;1.00;;;;;;4986893;28;20479;-82
2021/11/06 11:30:34;;;;;;;5.77;4.27;;;13.00;1.00;;;;;;4986425;28;20480;-82
2021/11/06 11:33:02;;;;;;;4.77;4.27;;;12.80;1.00;;;;;;4983308;28;20447;-82
2021/11/06 11:35:29;;;;;;;5.03;4.10;;;12.60;1.00;;;;;;4991662;28;20420;-81
2021/11/06 11:37:56;;;;;;;4.90;4.33;;;12.40;1.00;;;;;;4988866;28;20460;-81
2021/11/06 11:40:28;;;;;;;5.43;4.83;;;12.20;1.00;;;;;;4984610;28;20439;-81
2021/11/06 11:43:04;;;;;;;6.77;5.00;;;12.20;1.00;;;;;;4979351;28;21057;-81
2021/11/06 11:45:39;;;;;;;6.77;4.97;;;12.30;1.00;;;;;;4977585;28;20693;-81
2021/11/06 11:48:10;;;;;;;5.60;4.10;;;12.30;1.00;;;;;;4986869;28;20523;-80
2021/11/06 11:50:40;;;;;;;5.10;4.33;;;12.20;1.00;;;;;;4984790;28;20420;-82
2021/11/06 11:53:09;;;;;;;6.00;4.53;;;12.20;1.00;;;;;;4982224;28;20539;-81
2021/11/06 11:55:42;;;;;;;6.70;4.43;;;12.20;1.00;;;;;;4995916;28;20476;-81
2021/11/06 11:58:18;;;;;;;5.40;4.17;;;12.20;1.00;;;;;;4989259;28;20440;-82
2021/11/06 12:00:50;;;;;;;8.90;6.10;;;12.30;1.00;;;;;;4991678;28;20411;-81
2021/11/06 12:03:35;;;;;;;8.53;4.37;;;12.20;1.00;;;;;;4980235;28;20490;-82
2021/11/06 12:06:20;;;;;;;8.03;6.57;;;12.20;1.00;;;;;;4965375;28;20460;-82
2021/11/06 12:08:47;;;;;;;5.00;4.30;;;12.20;1.00;;;;;;4973568;28;20424;-82
2021/11/06 12:11:30;;;;;;;5.90;3.80;;;12.30;1.00;;;;;;4975401;28;21343;-82
2021/11/06 12:13:58;;;;;;;5.60;5.00;;;12.40;1.00;;;;;;4986532;28;20487;-81
2021/11/06 12:16:41;;;;;;;5.90;4.20;;;12.40;1.00;;;;;;4979721;28;20456;-81
2021/11/06 12:19:08;;;;;;;5.67;4.60;;;12.40;1.00;;;;;;4987659;28;20464;-81
2021/11/06 12:21:44;;;;;;;5.13;4.00;;;12.50;1.00;;;;;;4982990;28;20448;-82
2021/11/06 12:24:23;;;;;;;5.20;3.97;;;12.50;1.00;;;;;;4984670;28;20475;-81
2021/11/06 12:26:54;;;;;;;6.00;4.87;;;12.50;1.00;;;;;;4986621;28;20439;-80
2021/11/06 12:29:28;;;;;;;5.80;4.50;;;12.70;1.00;;;;;;4970700;28;20463;-82
2021/11/06 12:31:56;;;;;;;5.60;4.30;;;12.70;1.00;;;;;;4991423;28;20611;-81
2021/11/06 12:34:33;;;;;;;4.37;3.97;;;12.80;1.00;;;;;;4993164;28;20784;-82
2021/11/06 12:36:59;;;;;;;4.93;4.33;;;12.80;1.00;;;;;;4985291;28;20411;-82
2021/11/06 12:39:46;;;;;;;4.10;3.70;;;12.90;1.00;;;;;;4973808;28;20440;-82
2021/11/06 12:42:16;;;;;;;4.43;3.90;;;13.00;1.00;;;;;;4984748;28;20494;-81
2021/11/06 12:44:51;;;;;;;7.23;4.43;;;13.00;1.00;;;;;;4979645;28;20463;-82
2021/11/06 12:47:19;;;;;;;6.40;4.17;;;13.00;1.00;;;;;;4984012;28;20451;-83
2021/11/06 12:49:47;;;;;;;5.53;4.20;;;13.00;1.00;;;;;;4983318;28;20474;-80
2021/11/06 12:52:16;;;;;;;4.90;3.80;;;13.00;1.00;;;;;;4986110;28;20423;-80
2021/11/06 12:54:43;;;;;;;4.67;4.17;;;13.00;1.00;;;;;;4979086;28;20455;-81
2021/11/06 12:57:10;;;;;;;5.80;4.23;;;13.00;1.00;;;;;;4982133;28;20581;-81
2021/11/06 12:59:46;;;;;;;4.80;4.33;;;12.90;1.00;;;;;;4982918;28;20581;-80
2021/11/06 13:02:13;;;;;;;4.93;3.60;;;12.90;1.00;;;;;;4982115;28;20483;-81
2021/11/06 13:04:40;;;;;;;5.47;4.10;;;12.80;1.00;;;;;;4981564;28;20423;-80
2021/11/06 13:07:07;;;;;;;4.70;3.90;;;12.80;1.00;;;;;;4990065;28;20528;-81